Time;durP1;ratioP1;P1;durP2;ratioP2;P2;SDS_P1;SDS_P2;PMS_P1;PMS_P2;Temp;Humidity;BMP_temperature;BMP_pressure;BME280_temperature;BME280_humidity;BME280_pressure;Samples;Min_cycle;Max_cycle;Signal;HPM_P1;HPM_P2
2023/01/15 00:02:04;;;;;;;26.38;15.18;;;;;;;5.21;60.70;95376.81;5087704;28;20032;-68
2023/01/15 00:04:30;;;;;;;24.08;14.55;;;;;;;5.31;60.36;95376.00;5087010;28;20032;-69
2023/01/15 00:06:55;;;;;;;22.52;13.95;;;;;;;5.30;60.31;95372.50;5087672;28;20498;-68
2023/01/15 00:09:20;;;;;;;20.75;13.10;;;;;;;5.29;60.14;95370.97;5088124;28;20087;-68
2023/01/15 00:11:46;;;;;;;24.30;14.07;;;;;;;5.23;60.25;95369.81;5087148;28;20482;-68
2023/01/15 00:14:11;;;;;;;24.35;14.57;;;;;;;5.23;60.23;95372.53;5088193;28;20662;-70
2023/01/15 00:16:39;;;;;;;21.67;12.70;;;;;;;5.27;60.29;95372.50;5086917;28;20409;-68
2023/01/15 00:19:07;;;;;;;22.05;13.05;;;;;;;5.30;60.01;95374.47;5087623;28;20103;-68
2023/01/15 00:21:32;;;;;;;23.58;14.40;;;;;;;5.21;60.16;95376.81;5087461;28;20024;-68
2023/01/15 00:29:25;;;;;;;;;;;;;;;4.99;60.91;95371.38;5086712;28;20039;-67
2023/01/15 00:31:54;;;;;;;27.00;14.63;;;;;;;4.83;61.31;95371.00;5086435;28;19912;-69
2023/01/15 00:34:19;;;;;;;23.65;14.45;;;;;;;4.82;61.67;95371.38;5086418;28;20028;-71
2023/01/15 00:36:44;;;;;;;26.20;14.82;;;;;;;4.82;61.63;95368.63;5086676;28;20028;-69
2023/01/15 00:39:10;;;;;;;26.75;15.18;;;;;;;4.79;62.05;95372.94;5086383;28;20058;-69
2023/01/15 00:41:35;;;;;;;23.42;15.07;;;;;;;4.76;61.56;95357.38;5084587;28;20043;-69
2023/01/15 00:44:01;;;;;;;23.23;14.32;;;;;;;4.79;61.81;95372.94;5087950;28;20071;-69
2023/01/15 00:46:26;;;;;;;23.58;14.02;;;;;;;4.85;61.74;95363.19;5086709;28;20077;-69
2023/01/15 00:48:52;;;;;;;24.10;14.27;;;;;;;4.81;61.72;95359.69;5088595;28;20024;-69
2023/01/15 00:51:17;;;;;;;21.77;13.05;;;;;;;4.83;61.57;95357.38;5086741;28;20081;-69
2023/01/15 00:53:42;;;;;;;24.13;13.55;;;;;;;4.80;61.60;95364.38;5068294;28;20032;-68
2023/01/15 00:56:08;;;;;;;21.50;12.38;;;;;;;4.74;61.71;95359.69;5087553;28;20028;-69
2023/01/15 00:58:33;;;;;;;18.48;11.80;;;;;;;4.73;61.78;95358.16;5084823;28;20040;-69
2023/01/15 01:00:59;;;;;;;24.58;13.15;;;;;;;4.70;61.97;95357.00;5087474;28;20078;-68
2023/01/15 01:03:25;;;;;;;23.17;12.63;;;;;;;4.78;61.65;95357.75;5086331;28;20035;-70
2023/01/15 01:05:50;;;;;;;22.30;12.52;;;;;;;4.75;61.22;95347.63;5086537;28;20028;-69
2023/01/15 01:08:16;;;;;;;20.23;12.23;;;;;;;4.72;61.59;95354.66;5085858;28;20031;-68
2023/01/15 01:10:41;;;;;;;23.60;13.18;;;;;;;4.64;61.53;95355.78;5085111;28;20020;-69
2023/01/15 01:13:07;;;;;;;22.17;13.00;;;;;;;4.61;61.82;95353.84;5086632;28;20024;-69
2023/01/15 01:15:33;;;;;;;20.73;12.52;;;;;;;4.56;61.66;95350.75;5086071;28;20479;-68
2023/01/15 01:17:59;;;;;;;20.33;11.30;;;;;;;4.53;61.41;95355.81;5068569;28;20157;-68
2023/01/15 01:20:25;;;;;;;20.33;11.70;;;;;;;4.53;61.46;95346.88;5084245;28;20028;-68
2023/01/15 01:22:52;;;;;;;25.45;12.52;;;;;;;4.73;60.72;95358.91;5085047;28;20233;-68
2023/01/15 01:25:18;;;;;;;19.20;10.90;;;;;;;4.81;60.44;95351.53;5085793;28;20032;-69
2023/01/15 01:27:44;;;;;;;17.60;10.88;;;;;;;4.84;60.09;95352.69;5086451;28;20123;-70
2023/01/15 01:30:10;;;;;;;18.25;11.25;;;;;;;4.92;59.78;95359.69;5084876;28;20059;-67
2023/01/15 01:32:35;;;;;;;18.70;11.52;;;;;;;5.02;59.44;95354.25;5085984;28;20032;-69
2023/01/15 01:35:01;;;;;;;18.77;11.05;;;;;;;5.07;59.20;95353.84;5085570;28;20035;-69
2023/01/15 01:37:26;;;;;;;16.33;10.68;;;;;;;5.14;59.23;95352.28;5085764;28;20379;-69
2023/01/15 01:39:52;;;;;;;19.73;10.45;;;;;;;5.06;59.06;95354.25;5086724;28;20374;-69
2023/01/15 01:42:17;;;;;;;18.27;11.18;;;;;;;5.01;59.46;95354.63;5085382;28;20410;-69
2023/01/15 01:44:43;;;;;;;18.45;10.13;;;;;;;4.95;59.03;95350.75;5088138;28;20087;-72
2023/01/15 01:47:28;;;;;;;17.80;10.38;;;;;;;4.90;59.86;95357.38;5086605;28;20027;-69
2023/01/15 01:49:58;;;;;;;17.80;11.25;;;;;;;4.80;59.79;95339.84;5083707;28;20036;-69
2023/01/15 01:52:26;;;;;;;19.67;11.55;;;;;;;4.90;59.95;95348.41;5084431;28;20028;-69
2023/01/15 01:54:51;;;;;;;20.23;12.13;;;;;;;4.84;60.37;95358.94;5067053;28;20043;-68
2023/01/15 01:57:17;;;;;;;18.35;11.10;;;;;;;4.90;60.17;95349.19;5084843;28;20407;-69
2023/01/15 01:59:43;;;;;;;21.30;12.27;;;;;;;4.89;60.38;95353.09;5067216;28;20038;-69
2023/01/15 02:02:08;;;;;;;22.13;13.18;;;;;;;4.90;60.40;95346.47;5084625;28;20376;-68
2023/01/15 02:04:34;;;;;;;18.58;11.77;;;;;;;4.92;60.21;95348.78;5085250;28;20509;-68
2023/01/15 02:07:00;;;;;;;18.48;11.98;;;;;;;4.96;60.28;95355.81;5067671;28;20494;-68
2023/01/15 02:09:25;;;;;;;20.45;11.98;;;;;;;4.99;60.23;95349.59;5067708;28;20085;-68
2023/01/15 02:11:55;;;;;;;19.50;11.90;;;;;;;5.02;60.24;95340.63;5085277;28;20063;-69
2023/01/15 02:14:37;;;;;;;19.42;11.73;;;;;;;5.03;59.97;95350.34;5084844;28;20563;-69
2023/01/15 02:17:19;;;;;;;19.52;11.52;;;;;;;5.05;60.00;95345.31;5067640;28;20024;-69
2023/01/15 02:19:49;;;;;;;20.67;11.65;;;;;;;5.07;59.98;95342.19;5067235;28;20158;-69
2023/01/15 02:22:44;;;;;;;20.27;11.98;;;;;;;5.02;60.02;95342.56;5084325;28;20116;-69
2023/01/15 02:25:13;;;;;;;21.02;12.02;;;;;;;5.04;59.98;95340.22;5083382;28;20109;-70
2023/01/15 02:27:41;;;;;;;18.58;11.02;;;;;;;5.00;60.07;95344.91;5084108;28;20032;-69
2023/01/15 02:30:10;;;;;;;18.63;11.43;;;;;;;5.01;60.09;95343.75;5066880;28;20081;-68
2023/01/15 02:32:54;;;;;;;18.58;11.35;;;;;;;4.94;60.17;95336.34;5084049;28;20092;-68
2023/01/15 02:36:05;;;;;;;17.73;10.95;;;;;;;4.97;60.06;95332.84;5068380;28;20322;-69
2023/01/15 02:38:32;;;;;;;17.65;11.02;;;;;;;5.01;60.18;95330.13;5082440;28;20552;-68
2023/01/15 02:40:59;;;;;;;19.58;11.43;;;;;;;5.00;59.97;95332.06;5067071;28;20081;-69
2023/01/15 02:43:24;;;;;;;19.95;12.07;;;;;;;4.97;60.27;95330.09;5065518;28;20043;-69
2023/01/15 02:45:52;;;;;;;19.30;11.90;;;;;;;5.06;59.86;95330.50;5066134;28;20564;-68
2023/01/15 02:48:18;;;;;;;17.65;11.95;;;;;;;5.06;59.90;95338.69;5066369;28;20044;-69
2023/01/15 02:50:46;;;;;;;20.55;11.05;;;;;;;5.07;59.74;95337.50;5065130;28;20436;-68
2023/01/15 02:53:14;;;;;;;19.02;11.65;;;;;;;5.13;59.75;95334.38;5066316;28;20113;-69
2023/01/15 02:55:42;;;;;;;20.10;11.40;;;;;;;5.17;59.86;95335.16;5065344;28;20043;-69
2023/01/15 02:58:10;;;;;;;25.63;12.32;;;;;;;5.14;59.48;95328.53;5066205;28;20031;-69
2023/01/15 03:00:37;;;;;;;23.10;12.73;;;;;;;5.19;59.64;95332.81;5065461;28;20529;-68
2023/01/15 03:03:12;;;;;;;18.40;11.57;;;;;;;5.26;59.25;95333.56;5050113;28;20704;-68
2023/01/15 03:05:39;;;;;;;20.55;11.55;;;;;;;5.27;59.43;95339.78;5054258;28;20361;-68
2023/01/15 03:08:06;;;;;;;21.52;12.73;;;;;;;5.26;59.21;95338.25;5085986;28;20487;-68
2023/01/15 03:11:05;;;;;;;19.88;12.57;;;;;;;5.29;59.31;95332.78;5086839;28;20458;-68
2023/01/15 03:13:46;;;;;;;19.85;11.50;;;;;;;5.31;59.25;95333.16;5086135;28;20044;-68
2023/01/15 03:16:36;;;;;;;22.02;11.95;;;;;;;5.28;59.43;95325.78;5089056;28;20094;-68
2023/01/15 03:19:23;;;;;;;19.40;12.23;;;;;;;5.32;59.26;95332.00;5088141;28;20394;-69
2023/01/15 03:21:54;;;;;;;18.15;11.45;;;;;;;5.41;58.80;95325.38;5086590;28;20032;-69
2023/01/15 03:24:46;;;;;;;19.73;11.88;;;;;;;5.38;59.10;95321.47;5088939;28;20490;-68
2023/01/15 03:27:12;;;;;;;19.45;11.95;;;;;;;5.31;58.96;95330.44;5073528;28;20490;-69
2023/01/15 03:29:40;;;;;;;21.70;12.93;;;;;;;5.30;59.16;95320.72;5086530;28;20020;-69
2023/01/15 03:32:06;;;;;;;17.63;12.05;;;;;;;5.28;59.06;95328.53;5087707;28;20016;-68
2023/01/15 03:34:45;;;;;;;21.98;12.80;;;;;;;5.30;59.04;95325.41;5086857;28;20028;-69
2023/01/15 03:37:11;;;;;;;19.27;11.88;;;;;;;5.25;59.07;95323.06;5073199;28;20043;-69
2023/01/15 03:39:37;;;;;;;20.40;11.60;;;;;;;5.31;58.76;95326.94;5086706;28;20113;-68
2023/01/15 03:42:24;;;;;;;19.23;11.68;;;;;;;5.27;58.80;95328.88;5088027;28;20025;-68
2023/01/15 03:44:52;;;;;;;18.83;11.10;;;;;;;5.35;57.78;95337.84;5088591;28;20397;-68
2023/01/15 03:47:29;;;;;;;17.92;11.55;;;;;;;5.27;58.14;95331.63;5087796;28;20074;-68
2023/01/15 03:50:06;;;;;;;18.40;11.18;;;;;;;5.29;58.02;95327.34;5088363;28;20039;-69
2023/01/15 03:52:49;;;;;;;21.88;11.40;;;;;;;5.30;58.18;95328.13;5086793;28;20431;-71
2023/01/15 03:55:20;;;;;;;16.40;10.40;;;;;;;5.33;57.56;95327.31;5070559;28;20024;-68
2023/01/15 03:57:57;;;;;;;17.17;11.35;;;;;;;5.42;57.57;95327.69;5070769;28;20045;-70
2023/01/15 04:00:26;;;;;;;17.15;10.40;;;;;;;5.47;57.30;95329.25;5086247;28;20023;-68
2023/01/15 04:02:53;;;;;;;19.02;11.02;;;;;;;5.49;56.97;95333.13;5088051;28;20020;-68
2023/01/15 04:05:18;;;;;;;17.77;10.95;;;;;;;5.47;57.01;95326.53;5069599;28;20024;-68
2023/01/15 04:07:44;;;;;;;16.63;10.40;;;;;;;5.49;56.90;95319.50;5086459;28;20016;-68
2023/01/15 04:10:09;;;;;;;15.80;10.20;;;;;;;5.56;57.11;95321.41;5070099;28;20052;-69
2023/01/15 04:12:35;;;;;;;16.70;9.82;;;;;;;5.60;56.48;95328.41;5069346;28;20165;-68
2023/01/15 04:15:00;;;;;;;13.13;8.38;;;;;;;5.69;55.19;95327.22;5087541;28;20028;-68
2023/01/15 04:17:26;;;;;;;14.90;8.70;;;;;;;5.66;55.18;95325.28;5087273;28;20081;-68
2023/01/15 04:19:51;;;;;;;11.75;7.97;;;;;;;5.70;55.28;95326.06;5087562;28;20031;-68
2023/01/15 04:22:17;;;;;;;14.27;8.88;;;;;;;5.70;55.05;95326.81;5087053;28;20475;-68
2023/01/15 04:24:42;;;;;;;13.65;8.70;;;;;;;5.75;54.88;95326.41;5087975;28;20016;-68
2023/01/15 04:27:07;;;;;;;19.23;10.25;;;;;;;5.70;55.38;95329.56;5087645;28;20054;-69
2023/01/15 04:29:33;;;;;;;17.67;10.20;;;;;;;5.67;55.69;95337.75;5087230;28;20020;-69
2023/01/15 04:31:58;;;;;;;25.38;11.57;;;;;;;5.68;55.18;95331.91;5090590;28;20404;-70
2023/01/15 04:34:25;;;;;;;16.75;10.77;;;;;;;5.72;55.13;95335.38;5087302;28;20406;-69
2023/01/15 04:36:51;;;;;;;14.45;9.23;;;;;;;5.73;54.56;95339.66;5087814;28;20114;-69
2023/01/15 04:39:16;;;;;;;13.48;8.77;;;;;;;5.77;54.26;95328.75;5087169;28;20039;-68
2023/01/15 04:44:27;;;;;;;10.45;7.05;;;;;;;5.76;53.93;95329.94;5087381;28;20088;-69
2023/01/15 04:46:52;;;;;;;10.18;7.28;;;;;;;5.69;54.12;95325.28;5086966;28;20025;-70
2023/01/15 04:49:18;;;;;;;13.63;8.25;;;;;;;5.59;54.29;95317.91;5086385;28;20030;-70
2023/01/15 04:51:43;;;;;;;14.32;8.10;;;;;;;5.51;54.63;95319.13;5086270;28;20035;-69
2023/01/15 04:54:10;;;;;;;12.90;7.40;;;;;;;5.45;54.88;95326.91;5087561;28;20020;-68
2023/01/15 04:56:40;;;;;;;12.65;7.93;;;;;;;5.43;54.99;95337.44;5086855;28;20031;-69
2023/01/15 04:59:06;;;;;;;9.88;7.18;;;;;;;5.39;55.05;95339.41;5069296;28;20031;-69
2023/01/15 05:01:31;;;;;;;11.98;7.80;;;;;;;5.40;54.97;95334.72;5086732;28;20032;-68
2023/01/15 05:03:57;;;;;;;12.20;8.18;;;;;;;5.39;54.97;95335.88;5085339;28;20186;-68
2023/01/15 05:06:24;;;;;;;13.23;7.15;;;;;;;5.40;54.72;95342.91;5087446;28;20035;-69
2023/01/15 05:08:49;;;;;;;11.80;8.02;;;;;;;5.41;54.68;95339.00;5084872;28;20086;-68
2023/01/15 05:11:15;;;;;;;12.63;8.23;;;;;;;5.38;54.77;95335.09;5087501;28;20016;-69
2023/01/15 05:13:40;;;;;;;12.23;8.15;;;;;;;5.43;54.59;95342.09;5086231;28;20024;-70
2023/01/15 05:16:13;;;;;;;15.50;9.68;;;;;;;5.42;54.78;95340.56;5085294;28;20024;-69
2023/01/15 05:18:39;;;;;;;12.88;8.52;;;;;;;5.36;55.15;95340.19;5086566;28;20125;-69
2023/01/15 05:21:05;;;;;;;14.55;8.80;;;;;;;5.36;55.10;95342.13;5084987;28;20426;-69
2023/01/15 05:23:30;;;;;;;14.85;8.95;;;;;;;5.31;55.42;95346.81;5086790;28;20092;-70
2023/01/15 05:25:55;;;;;;;14.32;8.50;;;;;;;5.33;55.54;95336.31;5086182;28;20028;-69
2023/01/15 05:28:21;;;;;;;15.00;8.68;;;;;;;5.30;55.35;95333.56;5087063;28;20024;-68
2023/01/15 05:30:46;;;;;;;15.23;8.98;;;;;;;5.35;55.47;95338.63;5085779;28;20020;-69
2023/01/15 05:33:12;;;;;;;15.23;8.40;;;;;;;5.36;55.58;95342.91;5085147;28;20024;-69
2023/01/15 05:35:37;;;;;;;16.13;9.25;;;;;;;5.30;55.74;95349.94;5085996;28;20024;-68
2023/01/15 05:38:05;;;;;;;19.02;9.55;;;;;;;5.33;55.68;95347.22;5086523;28;20077;-69
2023/01/15 05:40:30;;;;;;;15.95;8.60;;;;;;;5.30;55.64;95345.25;5085289;28;20032;-69
2023/01/15 05:42:56;;;;;;;16.00;9.00;;;;;;;5.30;55.90;95342.53;5085900;28;20379;-73
2023/01/15 05:45:21;;;;;;;14.45;9.23;;;;;;;5.29;55.80;95348.38;5085791;28;20036;-67
2023/01/15 05:47:47;;;;;;;16.05;9.75;;;;;;;5.31;55.83;95348.75;5085403;28;20043;-68
2023/01/15 05:50:12;;;;;;;14.00;9.18;;;;;;;5.30;55.78;95358.09;5086805;28;20559;-68
2023/01/15 05:52:37;;;;;;;16.15;9.52;;;;;;;5.26;55.76;95363.56;5085525;28;20502;-68
2023/01/15 05:55:03;;;;;;;15.90;9.70;;;;;;;5.22;56.01;95353.84;5084352;28;20027;-69
2023/01/15 05:57:29;;;;;;;19.85;10.10;;;;;;;5.23;56.15;95358.13;5085923;28;20067;-68
2023/01/15 05:59:55;;;;;;;19.25;11.38;;;;;;;5.16;56.31;95356.19;5085753;28;20031;-68
2023/01/15 06:02:20;;;;;;;16.52;10.35;;;;;;;5.20;56.29;95354.22;5086405;28;20197;-69
2023/01/15 06:04:46;;;;;;;18.88;11.57;;;;;;;5.20;56.38;95362.41;5085241;28;20020;-70
2023/01/15 06:07:11;;;;;;;18.60;11.20;;;;;;;5.12;56.55;95355.41;5086302;28;20024;-71
2023/01/15 06:09:37;;;;;;;15.82;10.23;;;;;;;5.13;56.47;95364.38;5085362;28;20044;-68
2023/01/15 06:12:02;;;;;;;19.60;10.85;;;;;;;5.16;56.40;95358.13;5084231;28;20024;-68
2023/01/15 06:14:28;;;;;;;18.55;10.73;;;;;;;5.15;56.45;95359.28;5085628;28;20537;-69
2023/01/15 06:16:53;;;;;;;17.63;10.63;;;;;;;5.14;56.59;95349.56;5085448;28;20024;-69
2023/01/15 06:19:19;;;;;;;17.00;10.07;;;;;;;5.14;56.72;95349.56;5085726;28;20027;-69
2023/01/15 06:21:44;;;;;;;17.60;10.18;;;;;;;5.15;56.67;95351.13;5084248;28;20028;-70
2023/01/15 06:24:10;;;;;;;16.70;9.88;;;;;;;5.18;56.64;95353.84;5086689;28;20024;-69
2023/01/15 06:26:36;;;;;;;16.75;10.25;;;;;;;5.23;56.82;95349.94;5085587;28;20382;-70
2023/01/15 06:29:01;;;;;;;18.35;10.20;;;;;;;5.19;56.81;95343.72;5085795;28;20141;-70
2023/01/15 06:31:27;;;;;;;17.13;10.63;;;;;;;5.22;56.65;95343.72;5085176;28;20426;-68
2023/01/15 06:33:52;;;;;;;17.95;10.88;;;;;;;5.22;56.73;95343.72;5084082;28;20101;-69
2023/01/15 06:36:22;;;;;;;17.63;11.32;;;;;;;5.27;56.50;95351.47;5083682;28;20024;-69
2023/01/15 06:38:48;;;;;;;16.90;10.88;;;;;;;5.30;56.52;95344.47;5085697;28;20092;-68
2023/01/15 06:47:29;;;;;;;15.75;10.75;;;;;;;5.41;55.97;95347.19;5088084;28;20052;-70
2023/01/15 06:49:35;;;;;;;17.95;11.30;;;;;;;5.42;55.88;95349.50;5086627;28;20028;-68
2023/01/15 06:52:01;;;;;;;17.90;11.55;;;;;;;5.46;55.56;95349.50;5088958;28;20090;-69
2023/01/15 06:54:26;;;;;;;16.60;11.35;;;;;;;5.49;55.61;95344.03;5090064;28;20024;-69
2023/01/15 06:56:52;;;;;;;18.58;12.35;;;;;;;5.50;55.54;95345.59;5088976;28;20102;-68
2023/01/15 06:59:18;;;;;;;17.67;11.10;;;;;;;5.60;55.14;95344.78;5089488;28;20483;-69
2023/01/15 07:01:43;;;;;;;16.38;10.23;;;;;;;5.71;54.73;95344.75;5089138;28;20028;-68
2023/01/15 07:04:09;;;;;;;17.50;10.35;;;;;;;5.82;54.56;95350.16;5071467;28;20252;-69
2023/01/15 07:06:34;;;;;;;21.60;13.25;;;;;;;5.91;54.43;95341.53;5089774;28;20032;-70
2023/01/15 07:09:00;;;;;;;18.23;12.18;;;;;;;6.02;54.24;95353.22;5088859;28;20059;-70
2023/01/15 07:11:25;;;;;;;22.80;13.45;;;;;;;6.13;54.03;95356.66;5089611;28;20020;-69
2023/01/15 07:14:04;;;;;;;24.10;13.95;;;;;;;6.21;53.79;95352.75;5088413;28;20437;-69
2023/01/15 07:16:36;;;;;;;24.10;13.75;;;;;;;6.27;53.37;95353.88;5089457;28;20034;-70
2023/01/15 07:19:02;;;;;;;23.77;14.18;;;;;;;6.37;53.27;95357.75;5089207;28;20050;-70
2023/01/15 07:21:27;;;;;;;25.23;14.23;;;;;;;6.41;52.94;95363.94;5089065;28;20024;-69
2023/01/15 07:23:53;;;;;;;21.92;13.50;;;;;;;6.50;52.49;95363.50;5088575;28;20039;-69
2023/01/15 07:26:18;;;;;;;21.77;13.82;;;;;;;6.57;52.37;95366.97;5088661;28;20024;-69
2023/01/15 07:28:44;;;;;;;25.40;13.60;;;;;;;6.61;52.21;95365.00;5089303;28;20029;-69
2023/01/15 07:31:09;;;;;;;21.05;12.80;;;;;;;6.62;52.29;95363.03;5088129;28;20024;-68
2023/01/15 07:33:35;;;;;;;22.42;13.30;;;;;;;6.70;52.41;95369.22;5089765;28;20114;-69
2023/01/15 07:36:04;;;;;;;22.38;13.45;;;;;;;6.73;52.20;95365.69;5088206;28;20077;-68
2023/01/15 07:38:29;;;;;;;20.40;13.07;;;;;;;6.87;51.50;95373.78;5088695;28;20524;-69
2023/01/15 07:51:53;;;;;;;22.45;14.80;;;;;;;7.79;49.12;95366.66;5088270;28;20178;-69
2023/01/15 07:54:19;;;;;;;22.73;13.90;;;;;;;8.10;48.00;95364.75;5089549;28;20028;-70
2023/01/15 07:56:44;;;;;;;13.32;9.07;;;;;;;8.30;46.63;95359.41;5087893;28;20039;-69
2023/01/15 07:59:09;;;;;;;14.43;8.63;;;;;;;8.47;46.35;95352.94;5088481;28;20031;-69
2023/01/15 08:01:35;;;;;;;10.88;7.57;;;;;;;8.69;45.62;95358.09;5087478;28;20024;-69
2023/01/15 08:04:00;;;;;;;11.80;7.88;;;;;;;8.93;45.26;95351.47;5087018;28;20024;-69
2023/01/15 08:06:26;;;;;;;11.82;7.85;;;;;;;9.23;44.77;95356.09;5087818;28;20027;-68
2023/01/15 08:08:51;;;;;;;11.98;7.80;;;;;;;9.48;43.79;95352.13;5087820;28;20603;-70
2023/01/15 08:16:44;;;;;;;13.25;8.13;;;;;;;11.84;39.76;95361.44;5088938;28;20086;-69
2023/01/15 08:19:10;;;;;;;15.05;9.55;;;;;;;15.02;33.82;95369.13;5087383;28;20482;-70
2023/01/15 08:21:35;;;;;;;12.07;8.70;;;;;;;17.67;29.14;95370.16;5088063;28;20028;-70
2023/01/15 08:24:01;;;;;;;16.13;9.43;;;;;;;18.25;28.19;95370.84;5087218;28;20024;-70
2023/01/15 08:26:26;;;;;;;11.50;8.13;;;;;;;20.36;25.17;95379.41;5087783;28;20031;-69
2023/01/15 08:28:51;;;;;;;10.52;8.23;;;;;;;22.05;23.13;95381.53;5087634;28;20021;-71
2023/01/15 08:31:17;;;;;;;12.27;8.13;;;;;;;22.90;21.91;95372.19;5087247;28;20040;-71
2023/01/15 08:33:42;;;;;;;11.65;8.52;;;;;;;24.30;20.16;95380.38;5088393;28;20028;-72
2023/01/15 08:36:08;;;;;;;12.07;8.32;;;;;;;25.49;19.13;95375.59;5086744;28;20077;-70
2023/01/15 08:38:33;;;;;;;10.32;8.77;;;;;;;26.09;18.82;95386.75;5086584;28;20156;-70
2023/01/15 08:40:59;;;;;;;9.70;7.43;;;;;;;26.49;17.45;95387.84;5087012;28;20039;-68
2023/01/15 08:43:28;;;;;;;9.50;7.38;;;;;;;26.90;17.15;95389.63;5087824;28;20024;-69
2023/01/15 08:46:01;;;;;;;8.13;6.28;;;;;;;27.77;15.61;95378.78;5086916;28;20027;-70
2023/01/15 08:48:27;;;;;;;8.98;7.47;;;;;;;28.48;15.44;95377.94;5085467;28;20020;-70
2023/01/15 08:50:58;;;;;;;8.73;7.53;;;;;;;29.04;15.27;95381.63;5087738;28;20035;-71
2023/01/15 08:53:24;;;;;;;9.07;7.32;;;;;;;27.54;16.08;95375.56;5073110;28;20074;-70
2023/01/15 08:55:49;;;;;;;11.38;7.85;;;;;;;28.10;15.77;95374.56;5087093;28;20059;-70
2023/01/15 08:58:15;;;;;;;11.02;8.68;;;;;;;27.42;16.45;95371.41;5086949;28;20031;-71
2023/01/15 09:00:41;;;;;;;10.20;8.50;;;;;;;26.08;17.36;95369.09;5085713;28;20513;-69
2023/01/15 09:03:06;;;;;;;12.15;9.25;;;;;;;25.07;18.08;95378.47;5087028;28;20020;-70
2023/01/15 09:05:31;;;;;;;11.75;9.23;;;;;;;24.42;18.85;95373.47;5085264;28;20028;-70
2023/01/15 09:07:57;;;;;;;17.42;10.80;;;;;;;23.26;20.06;95367.59;5087063;28;20024;-71
2023/01/15 09:10:22;;;;;;;15.10;10.55;;;;;;;22.23;21.16;95355.94;5087387;28;20040;-70
2023/01/15 09:12:49;;;;;;;11.00;9.10;;;;;;;21.35;22.03;95363.34;5087065;28;20028;-70
2023/01/15 09:15:15;;;;;;;10.90;8.63;;;;;;;20.66;22.52;95360.47;5086733;28;20080;-72
2023/01/15 09:17:41;;;;;;;11.88;9.82;;;;;;;20.56;22.86;95359.09;5086532;28;20020;-70
2023/01/15 09:20:08;;;;;;;11.85;9.52;;;;;;;19.98;23.30;95358.16;5086442;28;20035;-72
2023/01/15 09:22:33;;;;;;;14.23;9.05;;;;;;;19.23;24.48;95354.81;5085126;28;20035;-70
2023/01/15 09:24:59;;;;;;;14.38;9.82;;;;;;;18.53;25.50;95351.88;5086660;28;20024;-70
2023/01/15 09:27:25;;;;;;;10.75;9.30;;;;;;;17.83;26.44;95341.16;5085895;28;20032;-70
2023/01/15 09:29:50;;;;;;;11.50;8.82;;;;;;;17.31;27.18;95343.31;5085265;28;20027;-70
2023/01/15 09:32:16;;;;;;;14.43;10.93;;;;;;;16.79;27.61;95339.84;5086017;28;20024;-69
2023/01/15 09:34:41;;;;;;;14.48;11.30;;;;;;;16.19;28.61;95335.03;5086718;28;20039;-69
2023/01/15 09:37:07;;;;;;;16.02;11.25;;;;;;;15.76;29.43;95327.78;5085719;28;20043;-70
2023/01/15 09:39:32;;;;;;;16.67;11.50;;;;;;;15.30;30.41;95327.69;5085065;28;20499;-69
2023/01/15 09:42:04;;;;;;;18.55;11.90;;;;;;;14.84;30.93;95319.25;5085847;28;20024;-69
2023/01/15 09:44:29;;;;;;;16.73;11.85;;;;;;;14.47;31.79;95313.56;5085608;28;20071;-68
2023/01/15 09:47:03;;;;;;;16.77;11.40;;;;;;;13.91;32.72;95286.75;5086324;28;20503;-70
2023/01/15 09:49:32;;;;;;;16.13;12.07;;;;;;;13.94;32.99;95304.44;5068270;28;20025;-70
2023/01/15 09:52:11;;;;;;;18.15;12.43;;;;;;;13.70;33.47;95299.34;5085918;28;20619;-72
2023/01/15 09:54:46;;;;;;;16.80;12.10;;;;;;;13.39;33.82;95292.94;5067992;28;20043;-69
2023/01/15 09:57:12;;;;;;;17.65;11.75;;;;;;;13.37;34.04;95287.09;5085582;28;20101;-69
2023/01/15 09:59:39;;;;;;;18.67;11.90;;;;;;;13.66;33.62;95284.91;5085031;28;20479;-68
2023/01/15 10:02:22;;;;;;;16.73;11.50;;;;;;;13.44;33.58;95276.56;5083740;28;20020;-70
2023/01/15 10:04:51;;;;;;;15.55;11.50;;;;;;;13.53;33.69;95276.66;5085231;28;20028;-69
2023/01/15 10:07:41;;;;;;;16.67;12.15;;;;;;;13.99;33.30;95273.44;5067615;28;20450;-74
2023/01/15 10:10:10;;;;;;;17.67;12.00;;;;;;;14.84;31.75;95266.66;5083731;28;20066;-69
2023/01/15 10:12:37;;;;;;;15.60;11.65;;;;;;;14.53;32.12;95255.66;5067619;28;20032;-69
2023/01/15 10:15:12;;;;;;;17.00;11.93;;;;;;;14.38;32.22;95255.38;5083428;28;20165;-69
2023/01/15 10:17:48;;;;;;;18.90;12.65;;;;;;;14.13;32.18;95250.03;5085796;28;20028;-73
2023/01/15 10:20:41;;;;;;;18.50;12.50;;;;;;;13.91;32.38;95250.06;5083414;28;20028;-68
2023/01/15 10:23:28;;;;;;;19.17;12.43;;;;;;;13.63;33.19;95247.09;5083752;28;20046;-69
2023/01/15 10:26:07;;;;;;;22.02;14.50;;;;;;;13.29;33.96;95242.38;5085610;28;20153;-69
2023/01/15 10:28:45;;;;;;;23.88;14.50;;;;;;;13.18;34.62;95241.94;5085080;28;20024;-70
2023/01/15 10:31:23;;;;;;;25.27;16.23;;;;;;;13.22;34.99;95237.09;5067977;28;20038;-69
2023/01/15 10:34:26;;;;;;;25.38;17.10;;;;;;;13.67;34.43;95235.94;5068917;28;20024;-69
2023/01/15 10:36:57;;;;;;;21.48;15.40;;;;;;;14.93;32.76;95227.19;5084926;28;20107;-69
2023/01/15 10:39:50;;;;;;;26.10;16.40;;;;;;;17.24;29.38;95221.44;5067682;28;20476;-70
2023/01/15 10:42:39;;;;;;;22.75;15.20;;;;;;;19.72;25.85;95226.97;5083074;28;20439;-68
2023/01/15 10:45:17;;;;;;;19.05;14.00;;;;;;;20.73;24.37;95214.75;5083149;28;20028;-69
2023/01/15 10:47:44;;;;;;;23.42;14.88;;;;;;;22.65;21.93;95206.56;5068003;28;20024;-70
2023/01/15 10:50:21;;;;;;;20.88;14.30;;;;;;;24.58;20.18;95218.03;5066280;28;20071;-69
2023/01/15 10:52:49;;;;;;;15.88;13.18;;;;;;;26.22;18.20;95209.38;5084170;28;20029;-69
2023/01/15 10:55:34;;;;;;;16.77;13.50;;;;;;;27.85;16.90;95210.16;5083768;28;20020;-71
2023/01/15 10:58:03;;;;;;;17.98;13.45;;;;;;;29.56;14.70;95204.31;5083565;28;20406;-70
2023/01/15 11:00:29;;;;;;;15.57;12.68;;;;;;;30.67;13.83;95200.19;5085303;28;20410;-70
2023/01/15 11:03:10;;;;;;;13.50;12.07;;;;;;;31.90;13.05;95200.94;5084563;28;20016;-69
2023/01/15 11:05:36;;;;;;;14.18;12.00;;;;;;;33.16;11.93;95193.44;5084102;28;20456;-71
2023/01/15 11:08:03;;;;;;;13.20;11.10;;;;;;;33.79;11.50;95185.22;5066447;28;20069;-69
2023/01/15 11:10:29;;;;;;;12.85;10.73;;;;;;;34.72;10.56;95188.47;5066888;28;20438;-70
2023/01/15 11:21:19;;;;;;;11.82;10.45;;;;;;;35.96;9.86;95168.69;5069888;28;20034;-71
2023/01/15 11:23:44;;;;;;;13.00;11.07;;;;;;;36.28;9.38;95163.81;5083646;28;20032;-70
2023/01/15 11:26:16;;;;;;;11.70;10.38;;;;;;;36.35;9.68;95162.91;5089274;28;20035;-70
2023/01/15 11:28:42;;;;;;;11.63;10.43;;;;;;;36.42;9.42;95167.75;5070325;28;20141;-71
2023/01/15 11:31:08;;;;;;;11.18;9.73;;;;;;;35.58;9.68;95160.81;5070823;28;20147;-69
2023/01/15 11:33:34;;;;;;;13.50;11.45;;;;;;;35.63;9.92;95154.78;5069956;28;20028;-70
2023/01/15 11:36:01;;;;;;;13.60;12.20;;;;;;;35.97;9.78;95153.03;5087283;28;20016;-70
2023/01/15 11:38:30;;;;;;;13.45;11.35;;;;;;;36.48;9.34;95141.69;5088911;28;20044;-70
2023/01/15 11:41:00;;;;;;;11.65;10.45;;;;;;;36.90;9.16;95141.84;5088201;28;20028;-70
2023/01/15 11:52:13;;;;;;;16.45;9.93;;;;;;;37.58;8.69;95120.66;5088884;28;20054;-70
2023/01/15 11:54:41;;;;;;;10.75;9.57;;;;;;;37.67;8.79;95116.94;5087517;28;20433;-70
2023/01/15 11:57:06;;;;;;;11.05;9.95;;;;;;;37.72;8.56;95121.59;5086830;28;20036;-70
2023/01/15 11:59:31;;;;;;;10.00;9.05;;;;;;;37.71;8.39;95114.34;5069549;28;20532;-71
2023/01/15 12:02:13;;;;;;;11.13;9.70;;;;;;;37.78;8.17;95119.13;5086758;28;20055;-71
2023/01/15 12:04:50;;;;;;;10.25;9.25;;;;;;;37.92;8.66;95122.22;5087438;28;20020;-71
2023/01/15 12:07:17;;;;;;;9.63;8.73;;;;;;;37.65;8.65;95111.81;5086026;28;20556;-71
2023/01/15 12:10:14;;;;;;;10.00;8.85;;;;;;;37.07;8.75;95117.19;5088241;28;20524;-71
2023/01/15 12:12:48;;;;;;;8.95;8.05;;;;;;;34.94;9.80;95105.94;5088002;28;20067;-70
2023/01/15 12:15:35;;;;;;;12.48;9.77;;;;;;;34.62;10.07;95107.72;5086492;28;20027;-69
2023/01/15 12:18:15;;;;;;;11.25;10.07;;;;;;;34.47;10.41;95096.56;5088065;28;20564;-70
2023/01/15 12:21:03;;;;;;;10.70;9.57;;;;;;;33.32;11.16;95092.25;5087166;28;20084;-69
2023/01/15 12:23:48;;;;;;;10.00;9.00;;;;;;;31.55;12.50;95080.56;5088188;28;20054;-70